Time;durP1;ratioP1;P1;durP2;ratioP2;P2;SDS_P1;SDS_P2;PMS_P1;PMS_P2;Temp;Humidity;BMP_temperature;BMP_pressure;BME280_temperature;BME280_humidity;BME280_pressure;Samples;Min_cycle;Max_cycle;Signal;HPM_P1;HPM_P2
2021/05/08 00:01:38;;;;;;;13.98;9.55;;;5.00;79.70;;;;;;5094868;28;20479;-36
2021/05/08 00:04:05;;;;;;;13.77;10.18;;;5.00;79.90;;;;;;5094595;28;20433;-36
2021/05/08 00:06:33;;;;;;;15.02;10.98;;;4.90;80.30;;;;;;5094692;28;20498;-37
2021/05/08 00:09:00;;;;;;;15.60;10.10;;;4.90;80.50;;;;;;5094370;28;20034;-37
2021/05/08 00:11:26;;;;;;;16.13;9.88;;;4.90;80.70;;;;;;5094204;28;20031;-37
2021/05/08 00:13:52;;;;;;;15.52;10.43;;;4.90;80.60;;;;;;5094585;28;20028;-36
2021/05/08 00:16:17;;;;;;;15.48;11.35;;;4.90;80.60;;;;;;5093847;28;20352;-36
2021/05/08 00:18:43;;;;;;;16.50;9.90;;;5.00;79.80;;;;;;5092916;28;20120;-35
2021/05/08 00:21:09;;;;;;;14.77;10.10;;;4.80;80.50;;;;;;5094125;28;20028;-36
2021/05/08 00:23:34;;;;;;;12.98;9.35;;;4.60;81.00;;;;;;5094146;28;20052;-36
2021/05/08 00:26:02;;;;;;;16.20;11.15;;;4.50;81.00;;;;;;5093988;28;20095;-36
2021/05/08 00:28:28;;;;;;;23.00;12.57;;;4.40;81.10;;;;;;5093899;28;20020;-36
2021/05/08 00:30:53;;;;;;;21.20;10.85;;;4.40;81.30;;;;;;5092582;28;20047;-36
2021/05/08 00:33:19;;;;;;;22.90;11.85;;;4.40;81.50;;;;;;5092734;28;20417;-37
2021/05/08 00:35:45;;;;;;;17.30;10.40;;;4.40;81.40;;;;;;5093860;28;20024;-37
2021/05/08 00:38:10;;;;;;;20.65;12.02;;;4.30;81.40;;;;;;5094000;28;20482;-36
2021/05/08 00:40:36;;;;;;;14.20;9.73;;;4.30;81.60;;;;;;5093727;28;20028;-36
2021/05/08 00:43:02;;;;;;;20.08;10.80;;;4.30;81.50;;;;;;5093922;28;20073;-36
2021/05/08 00:45:28;;;;;;;19.70;11.35;;;4.30;81.70;;;;;;5092503;28;20119;-37
2021/05/08 00:48:02;;;;;;;15.85;10.10;;;4.30;81.70;;;;;;5093662;28;20028;-36
2021/05/08 00:50:32;;;;;;;13.82;9.90;;;4.30;81.80;;;;;;5093518;28;20039;-36
2021/05/08 00:52:58;;;;;;;21.83;11.73;;;4.30;81.90;;;;;;5093513;28;20471;-36
2021/05/08 00:55:24;;;;;;;19.90;10.82;;;4.30;81.90;;;;;;5093770;28;20024;-36
2021/05/08 00:57:50;;;;;;;20.30;11.40;;;4.30;81.70;;;;;;5093643;28;20099;-36
2021/05/08 01:00:16;;;;;;;16.38;10.43;;;4.30;81.60;;;;;;5093402;28;20028;-37
2021/05/08 01:02:42;;;;;;;20.10;11.57;;;4.30;81.70;;;;;;5093174;28;20394;-37
2021/05/08 01:05:11;;;;;;;16.33;11.13;;;4.30;81.70;;;;;;5093262;28;20024;-37
2021/05/08 01:07:40;;;;;;;19.67;12.10;;;4.30;81.70;;;;;;5093307;28;20028;-38
2021/05/08 01:10:08;;;;;;;16.92;10.60;;;4.30;81.60;;;;;;5094308;28;20032;-37
2021/05/08 01:12:35;;;;;;;18.10;11.43;;;4.30;81.70;;;;;;5093257;28;20115;-36
2021/05/08 01:15:01;;;;;;;17.92;11.18;;;4.30;81.70;;;;;;5093429;28;20099;-36
2021/05/08 01:17:27;;;;;;;18.88;12.05;;;4.30;81.60;;;;;;5091814;28;20024;-37
2021/05/08 01:19:53;;;;;;;18.15;11.20;;;4.20;81.90;;;;;;5093158;28;20024;-36
2021/05/08 01:22:18;;;;;;;15.50;10.63;;;4.10;82.10;;;;;;5091818;28;20048;-36
2021/05/08 01:24:44;;;;;;;15.48;10.32;;;4.20;82.10;;;;;;5093066;28;20059;-37
2021/05/08 01:27:10;;;;;;;15.60;10.02;;;4.10;82.30;;;;;;5093068;28;20020;-35
2021/05/08 01:29:35;;;;;;;18.08;10.68;;;4.10;82.50;;;;;;5091735;28;20024;-35
2021/05/08 01:32:01;;;;;;;18.05;9.88;;;4.10;82.50;;;;;;5093251;28;20031;-37
2021/05/08 01:34:27;;;;;;;16.50;10.48;;;4.10;82.40;;;;;;5093002;28;20027;-36
2021/05/08 01:36:52;;;;;;;13.77;9.38;;;4.10;82.60;;;;;;5093030;28;20020;-37
2021/05/08 01:39:18;;;;;;;15.02;10.15;;;4.10;82.50;;;;;;5093037;28;20020;-38
2021/05/08 01:41:44;;;;;;;14.43;9.88;;;4.00;82.50;;;;;;5093072;28;20098;-37
2021/05/08 01:44:10;;;;;;;20.30;12.50;;;4.00;82.60;;;;;;5092948;28;20109;-37
2021/05/08 01:46:36;;;;;;;14.52;10.07;;;4.10;82.40;;;;;;5093258;28;20353;-37
2021/05/08 01:49:03;;;;;;;15.95;9.30;;;4.00;82.40;;;;;;5093395;28;20032;-37
2021/05/08 01:51:30;;;;;;;14.57;10.18;;;3.90;82.80;;;;;;5092794;28;20060;-37
2021/05/08 01:53:55;;;;;;;13.18;9.23;;;3.80;82.80;;;;;;5092832;28;20055;-37
2021/05/08 01:56:21;;;;;;;15.40;9.55;;;3.80;83.00;;;;;;5092787;28;20138;-37
2021/05/08 01:58:47;;;;;;;18.35;10.48;;;3.80;83.30;;;;;;5092931;28;20028;-37
2021/05/08 02:01:13;;;;;;;16.40;9.60;;;3.80;83.40;;;;;;5093568;28;20031;-36
2021/05/08 02:03:39;;;;;;;19.00;11.43;;;3.70;83.40;;;;;;5096708;28;20031;-36
2021/05/08 02:06:04;;;;;;;16.35;9.80;;;3.80;83.40;;;;;;5096903;28;20031;-36
2021/05/08 02:08:30;;;;;;;16.83;11.00;;;4.00;83.20;;;;;;5096542;28;20024;-36
2021/05/08 02:10:56;;;;;;;15.02;10.05;;;3.80;83.10;;;;;;5096480;28;20043;-36
2021/05/08 02:13:21;;;;;;;17.00;10.93;;;3.80;83.10;;;;;;5096744;28;20077;-37
2021/05/08 02:15:47;;;;;;;16.33;10.15;;;3.70;83.30;;;;;;5096612;28;20028;-36
2021/05/08 02:18:13;;;;;;;19.45;10.38;;;3.60;83.40;;;;;;5096389;28;20107;-36
2021/05/08 02:20:41;;;;;;;16.05;10.40;;;3.60;83.50;;;;;;5095077;28;20056;-36
2021/05/08 02:23:09;;;;;;;15.18;10.15;;;3.60;83.60;;;;;;5095176;28;20035;-36
2021/05/08 02:25:35;;;;;;;20.58;10.15;;;3.60;83.70;;;;;;5095886;28;20371;-36
2021/05/08 02:28:01;;;;;;;18.77;10.93;;;3.70;83.80;;;;;;5096361;28;20023;-36
2021/05/08 02:30:38;;;;;;;18.35;11.57;;;3.70;83.70;;;;;;5094962;28;20036;-35
2021/05/08 02:33:05;;;;;;;15.88;10.63;;;3.70;83.60;;;;;;5096436;28;20097;-37
2021/05/08 02:35:31;;;;;;;21.35;11.60;;;3.70;83.60;;;;;;5094885;28;20020;-35
2021/05/08 02:37:58;;;;;;;16.33;10.52;;;3.80;83.40;;;;;;5096047;28;20098;-35
2021/05/08 02:40:26;;;;;;;17.23;10.60;;;3.70;83.30;;;;;;5096097;28;20043;-36
2021/05/08 02:42:52;;;;;;;17.50;11.13;;;3.70;83.30;;;;;;5096263;28;20031;-35
2021/05/08 02:45:18;;;;;;;16.65;10.20;;;3.50;83.70;;;;;;5095942;28;20469;-36
2021/05/08 02:47:46;;;;;;;20.08;11.00;;;3.50;83.90;;;;;;5096185;28;20024;-36
2021/05/08 02:50:15;;;;;;;18.77;10.15;;;3.50;84.10;;;;;;5095751;28;20476;-36
2021/05/08 02:52:41;;;;;;;17.63;10.98;;;3.40;84.10;;;;;;5095728;28;20055;-36
2021/05/08 02:55:08;;;;;;;17.75;10.55;;;3.40;84.10;;;;;;5095980;28;20360;-36
2021/05/08 02:57:35;;;;;;;18.85;11.55;;;3.30;84.30;;;;;;5095722;28;20484;-37
2021/05/08 03:00:01;;;;;;;16.13;11.55;;;3.50;84.00;;;;;;5095809;28;20020;-36
2021/05/08 03:02:27;;;;;;;16.05;10.80;;;3.40;83.30;;;;;;5095807;28;20437;-36
2021/05/08 03:04:52;;;;;;;14.43;11.02;;;3.40;83.70;;;;;;5095613;28;20024;-35
2021/05/08 03:07:18;;;;;;;18.42;10.80;;;3.30;84.00;;;;;;5095505;28;20476;-35
2021/05/08 03:09:44;;;;;;;17.08;11.30;;;3.30;84.30;;;;;;5095333;28;20024;-35
2021/05/08 03:12:10;;;;;;;16.63;11.00;;;3.30;83.80;;;;;;5094310;28;20085;-35
2021/05/08 03:14:36;;;;;;;15.00;10.05;;;3.40;83.70;;;;;;5095620;28;20385;-35
2021/05/08 03:17:03;;;;;;;19.70;11.57;;;3.50;83.50;;;;;;5094090;28;20024;-35
2021/05/08 03:19:28;;;;;;;16.80;11.35;;;3.60;83.40;;;;;;5095322;28;20016;-36
2021/05/08 03:21:54;;;;;;;23.98;11.98;;;3.70;83.00;;;;;;5095990;28;20028;-36
2021/05/08 03:24:20;;;;;;;19.45;11.52;;;3.60;83.20;;;;;;5095214;28;20020;-36
2021/05/08 03:26:46;;;;;;;19.95;13.70;;;3.80;83.10;;;;;;5093724;28;20487;-36
2021/05/08 03:29:11;;;;;;;22.70;12.52;;;3.90;82.70;;;;;;5095113;28;20103;-36
2021/05/08 03:31:37;;;;;;;20.30;12.85;;;4.00;82.00;;;;;;5093774;28;20481;-36
2021/05/08 03:34:03;;;;;;;22.92;12.15;;;3.90;82.10;;;;;;5095093;28;20024;-37
2021/05/08 03:36:29;;;;;;;22.35;13.63;;;4.00;82.00;;;;;;5094981;28;20069;-35
2021/05/08 03:38:55;;;;;;;19.58;11.77;;;4.00;82.10;;;;;;5093555;28;20096;-35
2021/05/08 03:41:21;;;;;;;17.65;10.98;;;4.00;82.10;;;;;;5095005;28;20034;-36
2021/05/08 03:43:47;;;;;;;19.35;13.38;;;4.00;82.20;;;;;;5094804;28;20475;-36
2021/05/08 03:46:13;;;;;;;23.23;13.52;;;4.00;82.40;;;;;;5095050;28;20511;-36
2021/05/08 03:48:39;;;;;;;18.00;12.48;;;4.20;81.90;;;;;;5095043;28;20054;-35
2021/05/08 03:51:05;;;;;;;20.10;12.30;;;4.10;81.70;;;;;;5094427;28;20398;-36
2021/05/08 03:53:31;;;;;;;21.08;13.60;;;4.10;81.90;;;;;;5094733;28;20383;-36
2021/05/08 03:55:56;;;;;;;20.10;13.40;;;4.10;81.80;;;;;;5094578;28;20097;-36
2021/05/08 03:58:27;;;;;;;21.40;12.27;;;4.10;81.60;;;;;;5094803;28;20107;-36
2021/05/08 04:00:53;;;;;;;21.17;13.82;;;4.20;81.60;;;;;;5094525;28;20020;-35
2021/05/08 04:03:18;;;;;;;20.73;13.00;;;4.30;81.20;;;;;;5094830;28;20069;-35
2021/05/08 04:05:44;;;;;;;22.42;13.63;;;4.30;81.00;;;;;;5094671;28;20460;-35
2021/05/08 04:08:11;;;;;;;20.17;14.75;;;4.20;81.40;;;;;;5093141;28;20114;-36
2021/05/08 04:10:37;;;;;;;22.58;13.52;;;4.20;81.70;;;;;;5094165;28;20032;-36
2021/05/08 04:13:03;;;;;;;24.85;15.18;;;4.10;81.80;;;;;;5094249;28;20558;-35
2021/05/08 04:15:29;;;;;;;22.67;14.00;;;4.20;82.10;;;;;;5094298;28;20031;-36
2021/05/08 04:17:54;;;;;;;18.98;13.77;;;4.10;82.20;;;;;;5094155;28;20043;-36
2021/05/08 04:20:20;;;;;;;20.98;13.25;;;4.10;82.10;;;;;;5094111;28;20020;-36
2021/05/08 04:22:46;;;;;;;21.05;13.52;;;4.10;82.20;;;;;;5093994;28;20046;-36
2021/05/08 04:25:12;;;;;;;23.85;13.27;;;4.20;81.90;;;;;;5093782;28;20028;-36
2021/05/08 04:27:38;;;;;;;25.85;13.60;;;4.30;81.50;;;;;;5093961;28;20391;-36
2021/05/08 04:30:05;;;;;;;22.08;13.35;;;4.30;81.50;;;;;;5093841;28;20107;-36
2021/05/08 04:32:30;;;;;;;18.25;11.50;;;4.20;81.60;;;;;;5093841;28;20118;-36
2021/05/08 04:34:56;;;;;;;22.10;13.45;;;4.10;82.10;;;;;;5093843;28;20107;-36
2021/05/08 04:37:22;;;;;;;21.38;13.73;;;4.10;82.10;;;;;;5093616;28;20040;-36
2021/05/08 04:39:47;;;;;;;16.73;12.32;;;4.10;82.00;;;;;;5093517;28;20080;-36
2021/05/08 04:42:13;;;;;;;18.42;12.05;;;4.20;82.20;;;;;;5093665;28;20380;-36
2021/05/08 04:44:39;;;;;;;21.27;12.85;;;4.10;82.20;;;;;;5093714;28;20048;-35
2021/05/08 04:47:05;;;;;;;21.00;14.18;;;4.10;82.00;;;;;;5093658;28;20468;-36
2021/05/08 04:49:30;;;;;;;27.77;14.30;;;4.20;81.90;;;;;;5093552;28;20095;-36
2021/05/08 04:51:56;;;;;;;23.80;14.38;;;4.20;82.10;;;;;;5093297;28;20584;-36
2021/05/08 04:54:22;;;;;;;21.17;13.10;;;4.30;81.90;;;;;;5092092;28;20028;-36
2021/05/08 04:56:48;;;;;;;21.08;13.70;;;4.30;81.30;;;;;;5093683;28;20021;-36
2021/05/08 04:59:14;;;;;;;19.73;13.55;;;4.30;81.30;;;;;;5093666;28;20024;-36
2021/05/08 05:01:40;;;;;;;20.92;13.80;;;4.50;81.00;;;;;;5092105;28;20492;-35
2021/05/08 05:04:06;;;;;;;18.17;11.95;;;4.40;80.60;;;;;;5092631;28;20031;-35
2021/05/08 05:06:31;;;;;;;20.88;13.57;;;4.40;81.30;;;;;;5093430;28;20121;-36
2021/05/08 05:08:57;;;;;;;26.00;14.50;;;4.40;81.10;;;;;;5093533;28;20024;-36
2021/05/08 05:11:23;;;;;;;21.38;13.77;;;4.40;81.10;;;;;;5093285;28;20059;-36
2021/05/08 05:13:49;;;;;;;18.98;13.27;;;4.50;81.00;;;;;;5093210;28;20024;-36
2021/05/08 05:16:15;;;;;;;27.05;14.40;;;4.60;81.00;;;;;;5093299;28;20047;-35
2021/05/08 05:18:41;;;;;;;16.52;12.88;;;4.70;79.80;;;;;;5094228;28;20020;-35
2021/05/08 05:21:06;;;;;;;20.00;14.15;;;4.80;79.60;;;;;;5092000;28;20028;-35
2021/05/08 05:23:32;;;;;;;19.60;12.85;;;4.80;79.60;;;;;;5091887;28;20024;-36
2021/05/08 05:25:58;;;;;;;21.77;14.50;;;4.80;79.30;;;;;;5093351;28;20115;-36
2021/05/08 05:28:30;;;;;;;21.38;13.43;;;4.90;79.10;;;;;;5093065;28;20508;-36
2021/05/08 05:30:57;;;;;;;22.25;13.20;;;5.10;79.00;;;;;;5092938;28;20047;-36
2021/05/08 05:33:23;;;;;;;19.48;13.38;;;5.20;78.00;;;;;;5093149;28;20024;-36
2021/05/08 05:35:54;;;;;;;22.55;13.20;;;5.40;77.00;;;;;;5093286;28;20028;-36
2021/05/08 05:38:23;;;;;;;21.08;12.35;;;5.50;76.90;;;;;;5097418;28;20379;-36
2021/05/08 05:40:52;;;;;;;19.38;13.27;;;5.80;75.50;;;;;;5097584;28;20051;-36
2021/05/08 05:43:19;;;;;;;19.13;13.15;;;6.00;74.60;;;;;;5097424;28;20552;-36
2021/05/08 05:45:44;;;;;;;18.02;12.68;;;6.20;74.30;;;;;;5097424;28;20028;-36
2021/05/08 05:48:10;;;;;;;16.40;10.80;;;6.40;72.60;;;;;;5096913;28;20417;-36
2021/05/08 05:50:40;;;;;;;20.08;12.65;;;6.80;71.80;;;;;;5096957;28;20430;-36
2021/05/08 05:53:06;;;;;;;19.40;12.23;;;6.90;71.20;;;;;;5078856;28;20044;-36
2021/05/08 05:55:32;;;;;;;22.52;12.43;;;7.10;69.30;;;;;;5097908;28;20036;-36
2021/05/08 05:57:58;;;;;;;17.98;11.50;;;7.30;68.60;;;;;;5095708;28;20498;-36
2021/05/08 06:00:24;;;;;;;17.15;11.45;;;7.50;68.20;;;;;;5096580;28;20024;-36
2021/05/08 06:02:50;;;;;;;17.13;11.15;;;7.30;68.70;;;;;;5096705;28;20024;-36
2021/05/08 06:05:16;;;;;;;16.30;11.85;;;7.50;68.20;;;;;;5096767;28;20035;-36
2021/05/08 06:07:41;;;;;;;16.00;11.20;;;7.60;67.90;;;;;;5095410;28;20088;-36
2021/05/08 06:10:10;;;;;;;17.48;12.25;;;7.50;68.50;;;;;;5096494;28;20413;-37
2021/05/08 06:12:36;;;;;;;14.07;10.48;;;7.70;68.10;;;;;;5096879;28;20024;-36
2021/05/08 06:15:02;;;;;;;19.02;11.90;;;7.70;67.30;;;;;;5096889;28;20032;-36
2021/05/08 06:17:27;;;;;;;20.20;11.43;;;7.70;67.90;;;;;;5096242;28;20020;-36
2021/05/08 06:19:53;;;;;;;18.80;11.25;;;7.70;67.80;;;;;;5096545;28;20081;-36
2021/05/08 06:22:19;;;;;;;19.92;12.57;;;7.90;67.10;;;;;;5096213;28;20024;-36
2021/05/08 06:24:44;;;;;;;26.88;14.55;;;8.00;66.20;;;;;;5096431;28;20043;-36
2021/05/08 06:27:10;;;;;;;18.77;12.23;;;8.40;64.60;;;;;;5096390;28;20077;-36
2021/05/08 06:29:38;;;;;;;16.40;12.30;;;8.50;64.50;;;;;;5096218;28;20024;-36
2021/05/08 06:32:05;;;;;;;22.15;13.15;;;8.70;64.10;;;;;;5095891;28;20556;-36
2021/05/08 06:34:31;;;;;;;15.02;11.00;;;8.80;63.00;;;;;;5095786;28;20020;-36
2021/05/08 06:37:02;;;;;;;15.73;11.27;;;8.80;62.80;;;;;;5096120;28;20024;-35
2021/05/08 06:39:28;;;;;;;16.60;11.52;;;9.00;61.80;;;;;;5095968;28;20081;-37
2021/05/08 06:41:54;;;;;;;17.50;11.20;;;9.30;59.60;;;;;;5095988;28;20029;-36
2021/05/08 06:44:20;;;;;;;15.55;10.93;;;9.50;59.10;;;;;;5095858;28;20049;-35
2021/05/08 06:46:46;;;;;;;14.52;11.25;;;9.60;58.60;;;;;;5095650;28;20108;-35
2021/05/08 06:49:12;;;;;;;16.20;11.35;;;9.80;57.20;;;;;;5095749;28;20120;-36
2021/05/08 06:51:38;;;;;;;16.58;11.98;;;10.30;55.80;;;;;;5095244;28;20054;-36
2021/05/08 06:54:04;;;;;;;16.52;11.20;;;10.40;55.20;;;;;;5095437;28;20518;-36
2021/05/08 06:56:31;;;;;;;19.25;13.73;;;10.80;53.80;;;;;;5095792;28;20374;-35
2021/05/08 06:58:57;;;;;;;18.08;10.95;;;10.80;53.30;;;;;;5096124;28;20517;-35
2021/05/08 07:01:23;;;;;;;15.75;9.60;;;10.90;52.80;;;;;;5095311;28;20020;-35
2021/05/08 07:03:49;;;;;;;12.88;9.60;;;10.90;53.30;;;;;;5094051;28;20031;-35
2021/05/08 07:06:14;;;;;;;15.38;9.82;;;11.10;53.10;;;;;;5095642;28;20031;-35
2021/05/08 07:08:40;;;;;;;13.77;8.35;;;11.10;53.20;;;;;;5093936;28;20081;-36
2021/05/08 07:11:06;;;;;;;15.43;9.20;;;11.30;50.40;;;;;;5095126;28;20028;-36
2021/05/08 07:13:31;;;;;;;12.45;8.32;;;11.00;50.30;;;;;;5095550;28;20070;-35
2021/05/08 07:15:57;;;;;;;11.43;7.25;;;11.20;50.40;;;;;;5095319;28;20020;-37
2021/05/08 07:18:24;;;;;;;11.98;8.27;;;11.30;49.70;;;;;;5095734;28;20418;-37
2021/05/08 07:20:50;;;;;;;11.45;6.93;;;11.40;49.40;;;;;;5095164;28;20028;-36
2021/05/08 07:23:16;;;;;;;10.40;7.10;;;11.50;48.50;;;;;;5095368;28;20031;-36
2021/05/08 07:25:42;;;;;;;12.15;7.32;;;11.60;47.50;;;;;;5094058;28;20031;-35
2021/05/08 07:28:08;;;;;;;14.48;8.13;;;11.80;47.80;;;;;;5095292;28;20020;-35
2021/05/08 07:30:35;;;;;;;9.27;6.90;;;11.80;47.30;;;;;;5094861;28;20381;-36
2021/05/08 07:33:00;;;;;;;14.32;8.10;;;12.20;45.40;;;;;;5093534;28;20153;-37
2021/05/08 07:35:26;;;;;;;9.80;5.65;;;12.20;45.60;;;;;;5095087;28;20111;-36
2021/05/08 07:37:52;;;;;;;9.07;5.72;;;11.90;46.00;;;;;;5094709;28;20030;-36
2021/05/08 07:40:18;;;;;;;7.60;4.72;;;11.80;46.10;;;;;;5094753;28;20038;-36
2021/05/08 07:42:43;;;;;;;14.23;6.97;;;11.90;45.50;;;;;;5094576;28;20028;-37
2021/05/08 07:45:10;;;;;;;11.90;5.60;;;12.10;46.00;;;;;;5093359;28;20024;-36
2021/05/08 07:47:37;;;;;;;8.90;5.07;;;12.40;44.60;;;;;;5095001;28;20028;-37
2021/05/08 07:50:03;;;;;;;8.70;4.50;;;12.60;44.70;;;;;;5094657;28;20030;-37
2021/05/08 07:52:29;;;;;;;6.50;3.83;;;12.80;43.60;;;;;;5094268;28;20115;-37
2021/05/08 07:54:54;;;;;;;5.63;3.55;;;13.00;41.90;;;;;;5094338;28;20107;-36
2021/05/08 07:57:20;;;;;;;11.13;4.13;;;12.90;41.80;;;;;;5094240;28;20448;-37
2021/05/08 07:59:46;;;;;;;9.00;4.07;;;13.10;40.80;;;;;;5094063;28;20020;-42
2021/05/08 08:02:12;;;;;;;5.05;2.95;;;13.10;41.40;;;;;;5093308;28;20020;-36
2021/05/08 08:04:38;;;;;;;7.10;3.63;;;13.00;40.40;;;;;;5094398;28;20097;-37
2021/05/08 08:07:04;;;;;;;4.78;2.83;;;13.40;40.20;;;;;;5094194;28;20077;-37
2021/05/08 08:09:29;;;;;;;4.93;2.55;;;13.00;39.70;;;;;;5094087;28;20028;-36
2021/05/08 08:11:55;;;;;;;4.07;2.72;;;12.90;39.70;;;;;;5093664;28;20072;-36
2021/05/08 08:14:21;;;;;;;4.90;2.78;;;13.00;39.60;;;;;;5093406;28;20161;-36
2021/05/08 08:16:46;;;;;;;6.97;2.78;;;13.10;39.40;;;;;;5093835;28;20028;-36
2021/05/08 08:19:12;;;;;;;5.68;3.10;;;13.30;39.90;;;;;;5093825;28;20371;-36
2021/05/08 08:21:38;;;;;;;8.55;2.63;;;13.30;38.60;;;;;;5093589;28;20396;-37
2021/05/08 08:24:04;;;;;;;5.15;2.22;;;13.20;39.10;;;;;;5093891;28;20493;-37
2021/05/08 08:26:29;;;;;;;5.18;2.85;;;13.10;39.50;;;;;;5093952;28;20361;-37
2021/05/08 08:28:55;;;;;;;4.35;3.00;;;13.40;38.90;;;;;;5092404;28;20138;-37
2021/05/08 08:31:21;;;;;;;10.38;2.72;;;13.50;38.90;;;;;;5093455;28;20051;-37
2021/05/08 08:33:46;;;;;;;6.05;2.80;;;13.80;38.40;;;;;;5093849;28;20032;-37
2021/05/08 08:36:12;;;;;;;8.93;2.63;;;13.80;38.60;;;;;;5092524;28;20053;-37
2021/05/08 08:38:38;;;;;;;4.30;2.75;;;14.20;38.30;;;;;;5093451;28;20380;-37
2021/05/08 08:41:03;;;;;;;7.07;2.92;;;14.40;38.10;;;;;;5092176;28;20035;-36
2021/05/08 08:43:30;;;;;;;7.30;3.38;;;13.80;38.30;;;;;;5093792;28;20081;-36
2021/05/08 08:45:56;;;;;;;4.35;2.60;;;13.80;38.50;;;;;;5093229;28;20081;-36
2021/05/08 08:48:22;;;;;;;7.35;3.60;;;14.10;38.50;;;;;;5093293;28;20032;-36
2021/05/08 08:50:49;;;;;;;4.53;2.53;;;14.10;38.10;;;;;;5092072;28;20423;-36
2021/05/08 08:53:16;;;;;;;4.70;2.65;;;13.80;39.00;;;;;;5093278;28;20036;-36
2021/05/08 08:55:52;;;;;;;5.80;2.78;;;13.80;38.60;;;;;;5093946;28;20032;-36
2021/05/08 08:58:25;;;;;;;4.85;2.70;;;13.70;38.20;;;;;;5093053;28;20039;-36
2021/05/08 09:00:50;;;;;;;6.18;2.95;;;13.90;38.70;;;;;;5093549;28;20107;-36
2021/05/08 09:03:16;;;;;;;5.15;2.67;;;13.80;38.80;;;;;;5093617;28;20117;-37
2021/05/08 09:05:42;;;;;;;6.65;3.03;;;13.50;38.50;;;;;;5093105;28;20031;-37
2021/05/08 09:08:09;;;;;;;5.65;2.78;;;13.60;38.90;;;;;;5093172;28;20028;-36
2021/05/08 09:10:35;;;;;;;3.67;2.60;;;13.60;39.00;;;;;;5092591;28;20452;-37
2021/05/08 09:13:04;;;;;;;5.63;2.88;;;14.00;37.90;;;;;;5093164;28;20038;-37
2021/05/08 09:15:40;;;;;;;9.52;4.07;;;13.90;38.70;;;;;;5093002;28;20020;-37
2021/05/08 09:18:07;;;;;;;7.18;2.80;;;14.00;38.80;;;;;;5093433;28;20023;-37
2021/05/08 09:20:50;;;;;;;5.78;2.67;;;14.10;38.40;;;;;;5091205;28;20214;-37
2021/05/08 09:23:20;;;;;;;8.60;2.70;;;14.50;38.20;;;;;;5092836;28;20028;-37
2021/05/08 09:26:04;;;;;;;3.70;2.58;;;14.10;37.80;;;;;;5092645;28;20387;-36
2021/05/08 09:28:31;;;;;;;6.00;3.10;;;14.10;37.60;;;;;;5092749;28;20034;-36
2021/05/08 09:30:57;;;;;;;4.97;2.83;;;14.20;37.00;;;;;;5092422;28;20111;-36
2021/05/08 09:33:25;;;;;;;6.07;2.38;;;14.00;37.90;;;;;;5093124;28;20103;-38
2021/05/08 09:36:09;;;;;;;5.35;2.45;;;14.30;38.10;;;;;;5093537;28;20016;-36
2021/05/08 09:38:36;;;;;;;6.20;3.63;;;14.20;38.30;;;;;;5092970;28;20024;-37
2021/05/08 09:41:06;;;;;;;9.45;3.60;;;14.40;36.60;;;;;;5092671;28;20357;-36
2021/05/08 09:43:33;;;;;;;5.90;2.53;;;14.50;36.60;;;;;;5092437;28;20028;-37
2021/05/08 09:45:59;;;;;;;4.43;2.90;;;14.70;36.90;;;;;;5091820;28;20032;-37
2021/05/08 09:48:33;;;;;;;4.95;2.63;;;14.50;37.10;;;;;;5092471;28;20047;-36
2021/05/08 09:51:22;;;;;;;4.78;2.40;;;14.80;36.80;;;;;;5092890;28;20024;-37
2021/05/08 09:53:55;;;;;;;6.20;2.17;;;15.00;35.90;;;;;;5093377;28;20525;-38
2021/05/08 09:56:36;;;;;;;6.43;2.78;;;15.30;36.20;;;;;;5092707;28;20024;-36
2021/05/08 09:59:21;;;;;;;7.65;2.80;;;15.00;35.80;;;;;;5090981;28;20460;-36
2021/05/08 10:01:46;;;;;;;7.95;2.75;;;15.40;35.20;;;;;;5092012;28;20488;-38
2021/05/08 10:04:50;;;;;;;4.60;2.55;;;15.50;34.90;;;;;;5090838;28;20024;-37
2021/05/08 10:07:21;;;;;;;3.72;2.40;;;15.80;34.40;;;;;;5089829;28;20028;-37
2021/05/08 10:09:58;;;;;;;5.68;2.58;;;16.10;33.40;;;;;;5091711;28;20067;-37
2021/05/08 10:12:25;;;;;;;4.10;2.15;;;16.10;33.90;;;;;;5092088;28;20119;-37
2021/05/08 10:14:54;;;;;;;4.40;2.08;;;16.70;32.90;;;;;;5092370;28;20032;-37
2021/05/08 10:17:24;;;;;;;7.32;3.05;;;17.00;32.70;;;;;;5092325;28;20024;-37
2021/05/08 10:19:51;;;;;;;5.43;2.80;;;16.80;32.40;;;;;;5092357;28;20492;-37
2021/05/08 10:22:18;;;;;;;7.00;2.42;;;16.40;32.60;;;;;;5094187;28;20036;-37
2021/05/08 10:24:46;;;;;;;5.60;2.58;;;16.50;32.60;;;;;;5095815;28;20376;-37
2021/05/08 10:27:12;;;;;;;6.90;2.30;;;16.90;32.70;;;;;;5095666;28;20040;-38
2021/05/08 10:29:41;;;;;;;3.58;2.28;;;17.30;32.20;;;;;;5095886;28;20103;-37
2021/05/08 10:32:11;;;;;;;5.15;2.63;;;16.30;32.40;;;;;;5095631;28;20535;-37
2021/05/08 10:34:49;;;;;;;8.33;4.57;;;16.80;32.00;;;;;;5096071;28;20471;-36
2021/05/08 10:37:15;;;;;;;5.65;2.65;;;16.90;31.50;;;;;;5095844;28;20047;-38
2021/05/08 10:39:56;;;;;;;5.00;2.90;;;16.40;32.10;;;;;;5095381;28;20103;-37
2021/05/08 10:42:36;;;;;;;3.70;2.55;;;16.50;32.20;;;;;;5095081;28;20476;-38
2021/05/08 10:45:20;;;;;;;4.07;2.40;;;16.80;31.40;;;;;;5093837;28;20024;-38
2021/05/08 10:47:55;;;;;;;3.15;2.55;;;16.20;30.60;;;;;;5093608;28;20059;-36
2021/05/08 10:50:29;;;;;;;5.30;2.83;;;15.70;31.80;;;;;;5095135;28;20029;-37
2021/05/08 10:53:00;;;;;;;5.65;2.90;;;15.30;32.50;;;;;;5094807;28;20048;-37
2021/05/08 10:55:28;;;;;;;4.47;2.58;;;15.30;32.90;;;;;;5095438;28;20028;-37
2021/05/08 10:58:16;;;;;;;4.93;2.20;;;15.80;32.60;;;;;;5094912;28;20020;-37
2021/05/08 11:01:07;;;;;;;5.45;2.20;;;16.20;32.40;;;;;;5095056;28;20104;-36
2021/05/08 11:03:48;;;;;;;;;;;16.20;33.00;;;;;;5095580;28;20035;-37
2021/05/08 11:06:15;;;;;;;5.85;2.72;;;16.20;32.40;;;;;;5095387;28;19911;-38
2021/05/08 11:08:45;;;;;;;5.93;2.25;;;16.40;32.20;;;;;;5094892;28;20032;-37
2021/05/08 11:11:12;;;;;;;4.80;2.70;;;16.70;31.40;;;;;;5094563;28;20409;-38
2021/05/08 11:13:40;;;;;;;5.03;2.55;;;16.40;31.50;;;;;;5094509;28;20032;-37
2021/05/08 11:16:06;;;;;;;2.70;1.85;;;16.40;31.80;;;;;;5094892;28;20020;-37
2021/05/08 11:18:32;;;;;;;7.20;2.47;;;16.00;32.30;;;;;;5094771;28;20047;-37
2021/05/08 11:21:23;;;;;;;7.43;3.20;;;15.70;32.20;;;;;;5094815;28;20091;-37
2021/05/08 11:23:50;;;;;;;8.00;3.00;;;16.30;32.00;;;;;;5094602;28;20384;-37
2021/05/08 11:26:29;;;;;;;4.75;2.53;;;16.60;31.70;;;;;;5092943;28;20043;-37
2021/05/08 11:29:24;;;;;;;2.03;1.85;;;16.30;31.60;;;;;;5094675;28;20100;-37
2021/05/08 11:31:56;;;;;;;5.72;2.55;;;15.70;32.50;;;;;;5094381;28;20384;-37
2021/05/08 11:34:24;;;;;;;5.05;2.58;;;15.50;32.90;;;;;;5093727;28;20052;-38
2021/05/08 11:37:10;;;;;;;6.53;2.72;;;15.40;33.00;;;;;;5094206;28;20019;-36
2021/05/08 11:39:40;;;;;;;3.15;1.90;;;15.80;33.80;;;;;;5094545;28;20051;-37
2021/05/08 11:42:16;;;;;;;3.57;2.50;;;16.10;33.30;;;;;;5094610;28;20073;-37
2021/05/08 11:44:44;;;;;;;5.18;2.85;;;16.40;32.20;;;;;;5094611;28;20266;-37
2021/05/08 11:47:33;;;;;;;2.42;1.95;;;16.30;32.50;;;;;;5094753;28;20051;-36
2021/05/08 11:50:13;;;;;;;3.10;1.45;;;16.10;33.30;;;;;;5094335;28;20200;-37
2021/05/08 11:52:43;;;;;;;7.15;1.75;;;16.20;32.90;;;;;;5094147;28;20055;-37
2021/05/08 11:55:23;;;;;;;2.45;1.90;;;16.20;33.40;;;;;;5094166;28;20077;-37
2021/05/08 11:57:54;;;;;;;3.60;2.28;;;16.40;33.70;;;;;;5094087;28;20462;-38
2021/05/08 12:00:28;;;;;;;1.73;1.63;;;16.60;32.80;;;;;;5094585;28;20054;-37
2021/05/08 12:03:11;;;;;;;8.65;2.38;;;17.10;32.10;;;;;;5093945;28;20020;-37
2021/05/08 12:05:38;;;;;;;2.28;1.50;;;16.60;31.80;;;;;;5092652;28;20449;-36
2021/05/08 12:08:04;;;;;;;3.90;1.83;;;16.00;33.10;;;;;;5093916;28;20024;-38
2021/05/08 12:10:33;;;;;;;8.43;1.73;;;16.20;32.80;;;;;;5093686;28;20047;-36
2021/05/08 12:12:59;;;;;;;1.30;1.10;;;15.80;33.60;;;;;;5094117;28;20012;-38
2021/05/08 12:15:32;;;;;;;2.83;2.20;;;15.60;33.20;;;;;;5093808;28;20078;-36
2021/05/08 12:18:02;;;;;;;4.57;1.98;;;15.90;33.50;;;;;;5093705;28;20077;-36
2021/05/08 12:20:30;;;;;;;3.60;1.65;;;16.00;33.90;;;;;;5093680;28;20390;-37
2021/05/08 12:23:02;;;;;;;3.40;1.33;;;15.80;35.00;;;;;;5093963;28;20024;-36
2021/05/08 12:25:29;;;;;;;3.35;1.63;;;15.90;35.00;;;;;;5093418;28;20078;-36
2021/05/08 12:28:14;;;;;;;5.00;2.75;;;15.90;35.50;;;;;;5093001;28;20468;-36
2021/05/08 12:30:41;;;;;;;3.20;1.77;;;15.80;35.90;;;;;;5091681;28;20514;-36
2021/05/08 12:33:18;;;;;;;5.78;1.65;;;15.70;36.70;;;;;;5091639;28;20111;-36
2021/05/08 12:35:45;;;;;;;1.70;1.35;;;15.70;36.20;;;;;;5093741;28;20360;-36
2021/05/08 12:38:29;;;;;;;3.08;1.60;;;15.50;36.10;;;;;;5093421;28;20119;-36
2021/05/08 12:40:55;;;;;;;2.60;1.70;;;15.50;36.20;;;;;;5092513;28;20110;-37
2021/05/08 12:43:50;;;;;;;4.18;2.15;;;15.50;37.70;;;;;;5075550;28;20032;-37
2021/05/08 12:46:25;;;;;;;2.90;1.88;;;15.30;39.30;;;;;;5088877;28;20040;-37